Forside
METAR-TAF:

METAR-TAF

Lufthavne :

Vamdrup

Kolding, Danmark

Breddekreds: 55-26N, længdekreds: 009-20E, højde: 44 m

Aktuelle vejr

Denne rapport blev lavet for 28 minutter siden, kl. 22:50 UTC
Vind 8 kt fra nordvest
Temperatur 7°C
Fugtighed 93%
Tryk 1029 hPa

METAR: EKVD 222250Z AUTO 31008KT //// ///////// 07/06 Q1029

Tid: 00:18 (23:18 UTC)

Vejrudsigter

Denne rapport blev lavet for 12 timer og 9 minutter siden, kl. 11:09 UTC
Foreløbig gælder fra 22 på 12 UTC til 22 på 16 UTC
Vind 10 kt fra vestnordvest
Sigt: 8000 m
Spredte skyer i en højde af 500 ft
Brudte skyer i en højde af 1000 ft
let finregn, regn
Midlertidig
fra 22 på 12 UTC til 22 på 16 UTC
Sigt: 2500 m
Brudte skyer i en højde af 400 ft
dis

TAF: EKVD 221109Z 2212/2216 30010KT 8000 -DZRA SCT005 BKN010 TEMPO 2212/2216 2500 BR BKN004

Vejrobservationer og prognoser fra mere end 4000 lufthavne (METAR og TAF).

De gule og røde prikker repræsenterer de meteorologiske stationer.

Flyt musen over at se navnet på stationen.

Så klik over at se vejr observationer og prognoser.

At skifte det kort: Klik på de grønne knapper med et sort kors for at zoome ind; på den grønne knap med en bindestreg for at zoome ud; eller på de grønne pile for tilstødende kort.


METAR-TAF: